sensor_id;sensor_type;location;lat;lon;timestamp;temperature;humidity
20574;DHT22;10445;50.216;7.912;2022-08-03T00:00:13;20.60;1.00
20574;DHT22;10445;50.216;7.912;2022-08-03T00:03:03;20.50;1.00
20574;DHT22;10445;50.216;7.912;2022-08-03T00:05:52;20.50;1.00
20574;DHT22;10445;50.216;7.912;2022-08-03T00:08:53;20.40;1.00
20574;DHT22;10445;50.216;7.912;2022-08-03T00:11:42;20.30;1.00
20574;DHT22;10445;50.216;7.912;2022-08-03T00:14:31;20.20;1.00
20574;DHT22;10445;50.216;7.912;2022-08-03T00:17:37;20.20;1.00
20574;DHT22;10445;50.216;7.912;2022-08-03T00:20:40;20.20;1.00
20574;DHT22;10445;50.216;7.912;2022-08-03T00:23:42;20.20;1.00
20574;DHT22;10445;50.216;7.912;2022-08-03T00:26:59;20.20;1.00
20574;DHT22;10445;50.216;7.912;2022-08-03T00:29:48;20.10;1.00
20574;DHT22;10445;50.216;7.912;2022-08-03T00:32:58;20.10;1.00
20574;DHT22;10445;50.216;7.912;2022-08-03T00:35:47;20.10;1.00
20574;DHT22;10445;50.216;7.912;2022-08-03T00:38:52;20.00;1.00
20574;DHT22;10445;50.216;7.912;2022-08-03T00:41:50;20.00;1.00
20574;DHT22;10445;50.216;7.912;2022-08-03T00:45:03;20.00;1.00
20574;DHT22;10445;50.216;7.912;2022-08-03T00:47:50;20.00;1.00
20574;DHT22;10445;50.216;7.912;2022-08-03T00:51:35;19.90;1.00
20574;DHT22;10445;50.216;7.912;2022-08-03T00:54:29;19.90;1.00
20574;DHT22;10445;50.216;7.912;2022-08-03T00:57:34;19.90;1.00
20574;DHT22;10445;50.216;7.912;2022-08-03T01:00:29;19.90;1.00
20574;DHT22;10445;50.216;7.912;2022-08-03T01:03:33;19.90;1.00
20574;DHT22;10445;50.216;7.912;2022-08-03T01:06:29;19.90;1.00
20574;DHT22;10445;50.216;7.912;2022-08-03T01:10:20;19.90;1.00
20574;DHT22;10445;50.216;7.912;2022-08-03T01:13:39;19.80;1.00
20574;DHT22;10445;50.216;7.912;2022-08-03T01:16:58;19.80;1.00
20574;DHT22;10445;50.216;7.912;2022-08-03T01:19:51;19.80;1.00
20574;DHT22;10445;50.216;7.912;2022-08-03T01:23:36;19.80;1.00
20574;DHT22;10445;50.216;7.912;2022-08-03T01:30:16;19.80;1.00
20574;DHT22;10445;50.216;7.912;2022-08-03T01:33:14;19.80;1.00
20574;DHT22;10445;50.216;7.912;2022-08-03T01:36:32;19.80;1.00
20574;DHT22;10445;50.216;7.912;2022-08-03T01:39:48;19.90;1.00
20574;DHT22;10445;50.216;7.912;2022-08-03T01:42:58;19.80;1.00
20574;DHT22;10445;50.216;7.912;2022-08-03T01:45:51;19.80;1.00
20574;DHT22;10445;50.216;7.912;2022-08-03T01:48:57;19.80;1.00
20574;DHT22;10445;50.216;7.912;2022-08-03T01:51:55;19.80;1.00
20574;DHT22;10445;50.216;7.912;2022-08-03T01:55:05;19.70;1.00
20574;DHT22;10445;50.216;7.912;2022-08-03T02:01:15;19.50;1.00
20574;DHT22;10445;50.216;7.912;2022-08-03T02:04:58;19.40;1.00
20574;DHT22;10445;50.216;7.912;2022-08-03T02:07:50;19.30;1.00
20574;DHT22;10445;50.216;7.912;2022-08-03T02:10:56;19.30;1.00
20574;DHT22;10445;50.216;7.912;2022-08-03T02:13:56;19.30;1.00
20574;DHT22;10445;50.216;7.912;2022-08-03T02:17:08;19.30;1.00
20574;DHT22;10445;50.216;7.912;2022-08-03T02:22:57;19.20;1.00
20574;DHT22;10445;50.216;7.912;2022-08-03T02:29:17;19.20;1.00
20574;DHT22;10445;50.216;7.912;2022-08-03T02:32:34;19.10;1.00
20574;DHT22;10445;50.216;7.912;2022-08-03T02:35:48;19.20;1.00
20574;DHT22;10445;50.216;7.912;2022-08-03T02:38:41;19.10;1.00
20574;DHT22;10445;50.216;7.912;2022-08-03T02:41:32;19.10;1.00
20574;DHT22;10445;50.216;7.912;2022-08-03T02:44:24;19.10;1.00
20574;DHT22;10445;50.216;7.912;2022-08-03T02:47:14;19.10;1.00
20574;DHT22;10445;50.216;7.912;2022-08-03T02:50:11;19.10;1.00
20574;DHT22;10445;50.216;7.912;2022-08-03T02:53:01;19.10;1.00
20574;DHT22;10445;50.216;7.912;2022-08-03T02:55:51;19.10;1.00
20574;DHT22;10445;50.216;7.912;2022-08-03T02:58:42;19.10;1.00
20574;DHT22;10445;50.216;7.912;2022-08-03T03:01:32;19.10;1.00
20574;DHT22;10445;50.216;7.912;2022-08-03T03:04:21;19.00;1.00
20574;DHT22;10445;50.216;7.912;2022-08-03T03:07:20;19.00;1.00
20574;DHT22;10445;50.216;7.912;2022-08-03T03:10:10;19.00;1.00
20574;DHT22;10445;50.216;7.912;2022-08-03T03:13:00;19.00;1.00
20574;DHT22;10445;50.216;7.912;2022-08-03T03:15:51;19.00;1.00
20574;DHT22;10445;50.216;7.912;2022-08-03T03:18:42;19.00;1.00
20574;DHT22;10445;50.216;7.912;2022-08-03T03:21:32;19.00;1.00
20574;DHT22;10445;50.216;7.912;2022-08-03T03:24:25;19.10;1.00
20574;DHT22;10445;50.216;7.912;2022-08-03T03:27:15;19.00;1.00
20574;DHT22;10445;50.216;7.912;2022-08-03T03:30:05;19.00;1.00
20574;DHT22;10445;50.216;7.912;2022-08-03T03:32:56;19.00;1.00
20574;DHT22;10445;50.216;7.912;2022-08-03T03:35:45;18.90;1.00
20574;DHT22;10445;50.216;7.912;2022-08-03T03:38:35;19.10;1.00
20574;DHT22;10445;50.216;7.912;2022-08-03T03:41:25;19.20;1.00
20574;DHT22;10445;50.216;7.912;2022-08-03T03:44:20;19.20;1.00
20574;DHT22;10445;50.216;7.912;2022-08-03T03:47:08;19.20;1.00
20574;DHT22;10445;50.216;7.912;2022-08-03T03:49:59;19.20;1.00
20574;DHT22;10445;50.216;7.912;2022-08-03T03:52:49;19.10;1.00
20574;DHT22;10445;50.216;7.912;2022-08-03T03:55:38;19.10;1.00
20574;DHT22;10445;50.216;7.912;2022-08-03T03:58:49;19.00;1.00
20574;DHT22;10445;50.216;7.912;2022-08-03T04:01:38;19.00;1.00
20574;DHT22;10445;50.216;7.912;2022-08-03T04:04:27;18.90;1.00
20574;DHT22;10445;50.216;7.912;2022-08-03T04:07:38;18.90;1.00
20574;DHT22;10445;50.216;7.912;2022-08-03T04:10:55;18.80;1.00
20574;DHT22;10445;50.216;7.912;2022-08-03T04:13:54;18.80;1.00
20574;DHT22;10445;50.216;7.912;2022-08-03T04:16:49;18.80;1.00
20574;DHT22;10445;50.216;7.912;2022-08-03T04:19:43;18.80;1.00
20574;DHT22;10445;50.216;7.912;2022-08-03T04:22:33;18.80;1.00
20574;DHT22;10445;50.216;7.912;2022-08-03T04:25:25;18.80;1.00
20574;DHT22;10445;50.216;7.912;2022-08-03T04:28:16;18.80;1.10
20574;DHT22;10445;50.216;7.912;2022-08-03T04:31:21;18.70;1.30
20574;DHT22;10445;50.216;7.912;2022-08-03T04:34:10;18.70;2.10
20574;DHT22;10445;50.216;7.912;2022-08-03T04:37:02;18.70;2.30
20574;DHT22;10445;50.216;7.912;2022-08-03T04:39:56;18.70;2.50
20574;DHT22;10445;50.216;7.912;2022-08-03T04:42:47;18.70;2.40
20574;DHT22;10445;50.216;7.912;2022-08-03T04:45:38;18.70;2.50
20574;DHT22;10445;50.216;7.912;2022-08-03T04:48:28;18.70;3.80
20574;DHT22;10445;50.216;7.912;2022-08-03T04:51:17;18.80;5.50
20574;DHT22;10445;50.216;7.912;2022-08-03T04:54:11;18.70;6.40
20574;DHT22;10445;50.216;7.912;2022-08-03T04:57:00;18.70;6.20
20574;DHT22;10445;50.216;7.912;2022-08-03T04:59:49;18.70;6.20
20574;DHT22;10445;50.216;7.912;2022-08-03T05:02:49;18.70;6.00
20574;DHT22;10445;50.216;7.912;2022-08-03T05:05:39;18.80;6.10
20574;DHT22;10445;50.216;7.912;2022-08-03T05:08:37;18.80;6.30
20574;DHT22;10445;50.216;7.912;2022-08-03T05:11:33;18.80;6.50
20574;DHT22;10445;50.216;7.912;2022-08-03T05:14:22;18.90;6.80
20574;DHT22;10445;50.216;7.912;2022-08-03T05:17:14;19.00;7.50
20574;DHT22;10445;50.216;7.912;2022-08-03T05:20:04;19.00;7.80
20574;DHT22;10445;50.216;7.912;2022-08-03T05:22:54;19.10;9.30
20574;DHT22;10445;50.216;7.912;2022-08-03T05:25:43;19.20;11.90
20574;DHT22;10445;50.216;7.912;2022-08-03T05:28:36;19.20;10.40
20574;DHT22;10445;50.216;7.912;2022-08-03T05:31:34;19.40;9.20
20574;DHT22;10445;50.216;7.912;2022-08-03T05:34:23;19.50;8.30
20574;DHT22;10445;50.216;7.912;2022-08-03T05:37:11;19.60;6.80
20574;DHT22;10445;50.216;7.912;2022-08-03T05:40:02;19.70;7.40
20574;DHT22;10445;50.216;7.912;2022-08-03T05:42:51;19.80;6.00
20574;DHT22;10445;50.216;7.912;2022-08-03T05:45:40;19.90;7.20
20574;DHT22;10445;50.216;7.912;2022-08-03T05:48:28;20.10;7.60
20574;DHT22;10445;50.216;7.912;2022-08-03T05:51:17;20.20;8.60
20574;DHT22;10445;50.216;7.912;2022-08-03T05:54:06;20.40;8.00
20574;DHT22;10445;50.216;7.912;2022-08-03T05:56:56;20.60;7.10
20574;DHT22;10445;50.216;7.912;2022-08-03T05:59:45;20.80;6.90
20574;DHT22;10445;50.216;7.912;2022-08-03T06:02:41;21.10;5.80
20574;DHT22;10445;50.216;7.912;2022-08-03T06:05:30;21.40;3.10
20574;DHT22;10445;50.216;7.912;2022-08-03T06:08:29;21.60;1.00
20574;DHT22;10445;50.216;7.912;2022-08-03T06:11:18;21.90;1.00
20574;DHT22;10445;50.216;7.912;2022-08-03T06:14:08;22.10;1.00
20574;DHT22;10445;50.216;7.912;2022-08-03T06:16:57;22.20;1.00
20574;DHT22;10445;50.216;7.912;2022-08-03T06:19:45;22.40;1.00
20574;DHT22;10445;50.216;7.912;2022-08-03T06:22:34;22.40;1.00
20574;DHT22;10445;50.216;7.912;2022-08-03T06:25:36;22.50;1.00
20574;DHT22;10445;50.216;7.912;2022-08-03T06:28:25;22.60;1.00
20574;DHT22;10445;50.216;7.912;2022-08-03T06:31:35;22.70;1.00
20574;DHT22;10445;50.216;7.912;2022-08-03T06:34:24;22.90;1.00
20574;DHT22;10445;50.216;7.912;2022-08-03T06:37:21;23.10;1.00
20574;DHT22;10445;50.216;7.912;2022-08-03T06:40:12;23.30;1.00
20574;DHT22;10445;50.216;7.912;2022-08-03T06:43:08;23.30;1.00
20574;DHT22;10445;50.216;7.912;2022-08-03T06:45:59;23.50;1.00
20574;DHT22;10445;50.216;7.912;2022-08-03T06:48:49;23.70;1.00
20574;DHT22;10445;50.216;7.912;2022-08-03T06:51:38;23.70;1.00
20574;DHT22;10445;50.216;7.912;2022-08-03T06:54:47;23.80;1.00
20574;DHT22;10445;50.216;7.912;2022-08-03T06:57:35;23.90;1.00
20574;DHT22;10445;50.216;7.912;2022-08-03T07:00:24;24.00;1.00
20574;DHT22;10445;50.216;7.912;2022-08-03T07:03:14;24.10;1.00
20574;DHT22;10445;50.216;7.912;2022-08-03T07:06:04;24.20;1.00
20574;DHT22;10445;50.216;7.912;2022-08-03T07:08:53;24.50;1.00
20574;DHT22;10445;50.216;7.912;2022-08-03T07:11:45;24.60;1.00
20574;DHT22;10445;50.216;7.912;2022-08-03T07:14:34;24.70;1.00
20574;DHT22;10445;50.216;7.912;2022-08-03T07:17:23;24.70;1.00
20574;DHT22;10445;50.216;7.912;2022-08-03T07:20:12;24.80;1.00
20574;DHT22;10445;50.216;7.912;2022-08-03T07:23:02;25.00;1.00
20574;DHT22;10445;50.216;7.912;2022-08-03T07:25:51;25.20;1.00
20574;DHT22;10445;50.216;7.912;2022-08-03T07:28:40;25.30;1.00
20574;DHT22;10445;50.216;7.912;2022-08-03T07:31:29;25.40;1.00
20574;DHT22;10445;50.216;7.912;2022-08-03T07:34:20;25.60;1.00
20574;DHT22;10445;50.216;7.912;2022-08-03T07:37:09;25.80;1.00
20574;DHT22;10445;50.216;7.912;2022-08-03T07:40:00;25.80;1.00
20574;DHT22;10445;50.216;7.912;2022-08-03T07:42:49;26.00;1.00
20574;DHT22;10445;50.216;7.912;2022-08-03T07:45:39;26.10;1.00
20574;DHT22;10445;50.216;7.912;2022-08-03T07:48:28;26.10;1.00
20574;DHT22;10445;50.216;7.912;2022-08-03T07:51:17;26.30;1.00
20574;DHT22;10445;50.216;7.912;2022-08-03T07:54:05;26.60;1.00
20574;DHT22;10445;50.216;7.912;2022-08-03T07:56:57;26.70;1.00
20574;DHT22;10445;50.216;7.912;2022-08-03T07:59:46;26.80;1.00
20574;DHT22;10445;50.216;7.912;2022-08-03T08:02:48;26.80;1.00
20574;DHT22;10445;50.216;7.912;2022-08-03T08:05:37;26.90;1.00
20574;DHT22;10445;50.216;7.912;2022-08-03T08:08:26;26.90;1.00
20574;DHT22;10445;50.216;7.912;2022-08-03T08:11:14;27.00;1.00
20574;DHT22;10445;50.216;7.912;2022-08-03T08:14:05;27.00;1.00
20574;DHT22;10445;50.216;7.912;2022-08-03T08:16:54;27.10;1.00
20574;DHT22;10445;50.216;7.912;2022-08-03T08:19:43;27.10;1.00
20574;DHT22;10445;50.216;7.912;2022-08-03T08:22:38;27.20;1.00
20574;DHT22;10445;50.216;7.912;2022-08-03T08:25:28;27.40;1.00
20574;DHT22;10445;50.216;7.912;2022-08-03T08:28:18;27.70;1.00
20574;DHT22;10445;50.216;7.912;2022-08-03T08:31:20;27.60;1.00
20574;DHT22;10445;50.216;7.912;2022-08-03T08:34:09;27.70;1.00
20574;DHT22;10445;50.216;7.912;2022-08-03T08:36:58;27.90;1.00
20574;DHT22;10445;50.216;7.912;2022-08-03T08:39:47;28.20;1.00
20574;DHT22;10445;50.216;7.912;2022-08-03T08:42:37;28.80;1.00
20574;DHT22;10445;50.216;7.912;2022-08-03T08:45:43;29.50;1.00
20574;DHT22;10445;50.216;7.912;2022-08-03T08:48:35;30.40;1.00
20574;DHT22;10445;50.216;7.912;2022-08-03T08:51:30;30.70;1.00
20574;DHT22;10445;50.216;7.912;2022-08-03T08:54:43;30.70;1.00
20574;DHT22;10445;50.216;7.912;2022-08-03T08:57:34;30.80;1.00
20574;DHT22;10445;50.216;7.912;2022-08-03T09:00:29;30.50;1.00
20574;DHT22;10445;50.216;7.912;2022-08-03T09:03:18;30.20;1.00
20574;DHT22;10445;50.216;7.912;2022-08-03T09:06:17;29.90;1.00
20574;DHT22;10445;50.216;7.912;2022-08-03T09:09:06;29.70;1.00
20574;DHT22;10445;50.216;7.912;2022-08-03T09:12:15;29.30;1.00
20574;DHT22;10445;50.216;7.912;2022-08-03T09:15:26;28.90;1.00
20574;DHT22;10445;50.216;7.912;2022-08-03T09:18:28;28.90;1.00
20574;DHT22;10445;50.216;7.912;2022-08-03T09:21:23;28.90;1.00
20574;DHT22;10445;50.216;7.912;2022-08-03T09:24:21;29.00;1.00
20574;DHT22;10445;50.216;7.912;2022-08-03T09:27:27;29.10;1.00
20574;DHT22;10445;50.216;7.912;2022-08-03T09:30:17;29.20;1.00
20574;DHT22;10445;50.216;7.912;2022-08-03T09:33:21;29.30;1.00
20574;DHT22;10445;50.216;7.912;2022-08-03T09:36:38;29.00;1.00
20574;DHT22;10445;50.216;7.912;2022-08-03T09:39:27;29.00;1.00
20574;DHT22;10445;50.216;7.912;2022-08-03T09:42:28;29.10;1.00
20574;DHT22;10445;50.216;7.912;2022-08-03T09:45:25;29.50;1.00
20574;DHT22;10445;50.216;7.912;2022-08-03T09:48:21;29.90;1.00
20574;DHT22;10445;50.216;7.912;2022-08-03T09:51:10;30.10;1.00
20574;DHT22;10445;50.216;7.912;2022-08-03T09:54:29;30.10;1.00
20574;DHT22;10445;50.216;7.912;2022-08-03T09:57:23;30.00;1.00
20574;DHT22;10445;50.216;7.912;2022-08-03T10:00:14;29.80;1.00
20574;DHT22;10445;50.216;7.912;2022-08-03T10:03:04;30.00;1.00
20574;DHT22;10445;50.216;7.912;2022-08-03T10:05:53;29.90;1.00
20574;DHT22;10445;50.216;7.912;2022-08-03T10:08:46;29.80;1.00
20574;DHT22;10445;50.216;7.912;2022-08-03T10:11:37;29.70;1.00
20574;DHT22;10445;50.216;7.912;2022-08-03T10:14:28;29.90;1.00
20574;DHT22;10445;50.216;7.912;2022-08-03T10:17:19;30.10;1.00
20574;DHT22;10445;50.216;7.912;2022-08-03T10:20:08;30.20;1.00
20574;DHT22;10445;50.216;7.912;2022-08-03T10:22:58;30.00;1.00
20574;DHT22;10445;50.216;7.912;2022-08-03T10:25:53;29.90;1.00
20574;DHT22;10445;50.216;7.912;2022-08-03T10:28:48;30.10;1.00
20574;DHT22;10445;50.216;7.912;2022-08-03T10:31:39;29.90;1.00
20574;DHT22;10445;50.216;7.912;2022-08-03T10:34:45;29.70;1.00
20574;DHT22;10445;50.216;7.912;2022-08-03T10:37:51;29.50;1.00
20574;DHT22;10445;50.216;7.912;2022-08-03T10:40:45;29.50;1.00
20574;DHT22;10445;50.216;7.912;2022-08-03T10:43:41;29.20;1.00
20574;DHT22;10445;50.216;7.912;2022-08-03T10:46:38;29.20;1.00
20574;DHT22;10445;50.216;7.912;2022-08-03T10:49:31;29.50;1.00
20574;DHT22;10445;50.216;7.912;2022-08-03T10:52:22;29.60;1.00
20574;DHT22;10445;50.216;7.912;2022-08-03T10:55:29;29.70;1.00
20574;DHT22;10445;50.216;7.912;2022-08-03T10:58:51;29.60;1.00
20574;DHT22;10445;50.216;7.912;2022-08-03T11:01:52;29.60;1.00
20574;DHT22;10445;50.216;7.912;2022-08-03T11:08:18;30.10;1.00
20574;DHT22;10445;50.216;7.912;2022-08-03T11:11:24;30.10;1.00
20574;DHT22;10445;50.216;7.912;2022-08-03T11:14:16;29.80;1.00
20574;DHT22;10445;50.216;7.912;2022-08-03T11:17:07;29.60;1.00
20574;DHT22;10445;50.216;7.912;2022-08-03T11:20:01;29.60;1.00
20574;DHT22;10445;50.216;7.912;2022-08-03T11:22:52;29.60;1.00
20574;DHT22;10445;50.216;7.912;2022-08-03T11:26:14;29.80;1.00
20574;DHT22;10445;50.216;7.912;2022-08-03T11:29:28;29.90;1.00
20574;DHT22;10445;50.216;7.912;2022-08-03T11:32:51;30.00;1.00
20574;DHT22;10445;50.216;7.912;2022-08-03T11:35:57;30.10;1.00
20574;DHT22;10445;50.216;7.912;2022-08-03T11:39:13;29.90;1.00
20574;DHT22;10445;50.216;7.912;2022-08-03T11:45:25;30.00;1.00
20574;DHT22;10445;50.216;7.912;2022-08-03T11:48:16;30.10;1.00
20574;DHT22;10445;50.216;7.912;2022-08-03T11:51:06;30.10;1.00
20574;DHT22;10445;50.216;7.912;2022-08-03T11:53:57;30.10;1.00
20574;DHT22;10445;50.216;7.912;2022-08-03T11:56:47;30.20;1.00
20574;DHT22;10445;50.216;7.912;2022-08-03T11:59:36;30.20;1.00
20574;DHT22;10445;50.216;7.912;2022-08-03T12:02:25;30.20;1.00
20574;DHT22;10445;50.216;7.912;2022-08-03T12:05:16;30.10;1.00
20574;DHT22;10445;50.216;7.912;2022-08-03T12:08:06;30.20;1.00
20574;DHT22;10445;50.216;7.912;2022-08-03T12:10:56;30.20;1.00
20574;DHT22;10445;50.216;7.912;2022-08-03T12:13:48;30.40;1.00
20574;DHT22;10445;50.216;7.912;2022-08-03T12:16:57;30.50;1.00
20574;DHT22;10445;50.216;7.912;2022-08-03T12:19:46;30.60;1.00
20574;DHT22;10445;50.216;7.912;2022-08-03T12:22:38;30.90;1.00
20574;DHT22;10445;50.216;7.912;2022-08-03T12:25:27;31.60;1.00
20574;DHT22;10445;50.216;7.912;2022-08-03T12:28:26;32.30;1.00
20574;DHT22;10445;50.216;7.912;2022-08-03T12:31:24;32.60;1.00
20574;DHT22;10445;50.216;7.912;2022-08-03T12:34:14;32.50;1.00
20574;DHT22;10445;50.216;7.912;2022-08-03T12:37:04;32.30;1.00
20574;DHT22;10445;50.216;7.912;2022-08-03T12:40:11;32.20;1.00
20574;DHT22;10445;50.216;7.912;2022-08-03T12:43:11;32.10;1.00
20574;DHT22;10445;50.216;7.912;2022-08-03T12:46:09;32.10;1.00
20574;DHT22;10445;50.216;7.912;2022-08-03T12:48:59;32.20;1.00
20574;DHT22;10445;50.216;7.912;2022-08-03T12:51:58;32.30;1.00
20574;DHT22;10445;50.216;7.912;2022-08-03T12:54:54;32.20;1.00
20574;DHT22;10445;50.216;7.912;2022-08-03T12:57:45;31.90;1.00
20574;DHT22;10445;50.216;7.912;2022-08-03T13:00:33;31.70;1.00
20574;DHT22;10445;50.216;7.912;2022-08-03T13:03:23;31.50;1.00
20574;DHT22;10445;50.216;7.912;2022-08-03T13:06:29;31.70;1.00
20574;DHT22;10445;50.216;7.912;2022-08-03T13:09:17;32.00;1.00
20574;DHT22;10445;50.216;7.912;2022-08-03T13:12:09;32.10;1.00
20574;DHT22;10445;50.216;7.912;2022-08-03T13:14:59;31.70;1.00
20574;DHT22;10445;50.216;7.912;2022-08-03T13:17:48;31.30;1.00
20574;DHT22;10445;50.216;7.912;2022-08-03T13:20:37;30.80;1.00
20574;DHT22;10445;50.216;7.912;2022-08-03T13:23:25;30.60;1.00
20574;DHT22;10445;50.216;7.912;2022-08-03T13:26:14;30.50;1.00
20574;DHT22;10445;50.216;7.912;2022-08-03T13:29:03;30.30;1.00
20574;DHT22;10445;50.216;7.912;2022-08-03T13:31:53;30.20;1.00
20574;DHT22;10445;50.216;7.912;2022-08-03T13:34:42;30.70;1.00
20574;DHT22;10445;50.216;7.912;2022-08-03T13:37:31;31.50;1.00
20574;DHT22;10445;50.216;7.912;2022-08-03T13:40:20;31.80;1.00
20574;DHT22;10445;50.216;7.912;2022-08-03T13:43:16;31.60;1.00
20574;DHT22;10445;50.216;7.912;2022-08-03T13:46:05;31.60;1.00
20574;DHT22;10445;50.216;7.912;2022-08-03T13:48:55;31.50;1.00
20574;DHT22;10445;50.216;7.912;2022-08-03T13:51:43;31.40;1.00
20574;DHT22;10445;50.216;7.912;2022-08-03T13:54:32;31.30;1.00
20574;DHT22;10445;50.216;7.912;2022-08-03T13:57:21;31.00;1.00
20574;DHT22;10445;50.216;7.912;2022-08-03T14:00:30;30.90;1.00
20574;DHT22;10445;50.216;7.912;2022-08-03T14:03:19;31.20;1.00
20574;DHT22;10445;50.216;7.912;2022-08-03T14:06:09;31.60;1.00
20574;DHT22;10445;50.216;7.912;2022-08-03T14:08:58;31.60;1.00
20574;DHT22;10445;50.216;7.912;2022-08-03T14:11:47;31.60;1.00
20574;DHT22;10445;50.216;7.912;2022-08-03T14:14:53;31.50;1.00
20574;DHT22;10445;50.216;7.912;2022-08-03T14:17:47;31.30;1.00
20574;DHT22;10445;50.216;7.912;2022-08-03T14:20:36;31.30;1.00
20574;DHT22;10445;50.216;7.912;2022-08-03T14:23:41;31.60;1.00
20574;DHT22;10445;50.216;7.912;2022-08-03T14:26:30;31.70;1.00
20574;DHT22;10445;50.216;7.912;2022-08-03T14:29:19;31.90;1.00
20574;DHT22;10445;50.216;7.912;2022-08-03T14:32:08;31.90;1.00
20574;DHT22;10445;50.216;7.912;2022-08-03T14:34:59;32.00;1.00
20574;DHT22;10445;50.216;7.912;2022-08-03T14:37:48;31.80;1.00
20574;DHT22;10445;50.216;7.912;2022-08-03T14:40:39;31.70;1.00
20574;DHT22;10445;50.216;7.912;2022-08-03T14:43:28;31.80;1.00
20574;DHT22;10445;50.216;7.912;2022-08-03T14:46:20;31.80;1.00
20574;DHT22;10445;50.216;7.912;2022-08-03T14:49:09;31.70;1.00
20574;DHT22;10445;50.216;7.912;2022-08-03T14:52:17;31.60;1.00
20574;DHT22;10445;50.216;7.912;2022-08-03T14:55:07;31.70;1.00
20574;DHT22;10445;50.216;7.912;2022-08-03T14:57:57;31.70;1.00
20574;DHT22;10445;50.216;7.912;2022-08-03T15:00:49;31.80;1.00
20574;DHT22;10445;50.216;7.912;2022-08-03T15:03:38;32.00;1.00
20574;DHT22;10445;50.216;7.912;2022-08-03T15:06:27;32.00;1.00
20574;DHT22;10445;50.216;7.912;2022-08-03T15:09:16;31.90;1.00
20574;DHT22;10445;50.216;7.912;2022-08-03T15:12:10;32.00;1.00
20574;DHT22;10445;50.216;7.912;2022-08-03T15:15:00;32.00;1.00
20574;DHT22;10445;50.216;7.912;2022-08-03T15:17:49;32.10;1.00
20574;DHT22;10445;50.216;7.912;2022-08-03T15:20:47;32.20;1.00
20574;DHT22;10445;50.216;7.912;2022-08-03T15:23:37;32.20;1.00
20574;DHT22;10445;50.216;7.912;2022-08-03T15:26:25;32.10;1.00
20574;DHT22;10445;50.216;7.912;2022-08-03T15:29:25;32.00;1.00
20574;DHT22;10445;50.216;7.912;2022-08-03T15:32:35;31.90;1.00
20574;DHT22;10445;50.216;7.912;2022-08-03T15:35:24;32.00;1.00
20574;DHT22;10445;50.216;7.912;2022-08-03T15:38:15;32.10;1.00
20574;DHT22;10445;50.216;7.912;2022-08-03T15:41:03;32.10;1.00
20574;DHT22;10445;50.216;7.912;2022-08-03T15:44:00;32.00;1.00
20574;DHT22;10445;50.216;7.912;2022-08-03T15:46:55;32.00;1.00
20574;DHT22;10445;50.216;7.912;2022-08-03T15:49:45;31.80;1.00
20574;DHT22;10445;50.216;7.912;2022-08-03T15:52:34;31.70;1.00
20574;DHT22;10445;50.216;7.912;2022-08-03T15:55:23;31.70;1.00
20574;DHT22;10445;50.216;7.912;2022-08-03T15:58:12;31.70;1.00
20574;DHT22;10445;50.216;7.912;2022-08-03T16:01:20;31.60;1.00
20574;DHT22;10445;50.216;7.912;2022-08-03T16:04:09;31.60;1.00
20574;DHT22;10445;50.216;7.912;2022-08-03T16:06:59;31.50;1.00
20574;DHT22;10445;50.216;7.912;2022-08-03T16:09:48;31.50;1.00
20574;DHT22;10445;50.216;7.912;2022-08-03T16:12:37;31.50;1.00
20574;DHT22;10445;50.216;7.912;2022-08-03T16:15:26;31.50;1.00
20574;DHT22;10445;50.216;7.912;2022-08-03T16:18:15;31.50;1.00
20574;DHT22;10445;50.216;7.912;2022-08-03T16:21:04;31.50;1.00
20574;DHT22;10445;50.216;7.912;2022-08-03T16:23:58;31.60;1.00
20574;DHT22;10445;50.216;7.912;2022-08-03T16:26:51;31.50;1.00
20574;DHT22;10445;50.216;7.912;2022-08-03T16:29:42;31.40;1.00
20574;DHT22;10445;50.216;7.912;2022-08-03T16:32:32;31.30;1.00
20574;DHT22;10445;50.216;7.912;2022-08-03T16:35:20;31.20;1.00
20574;DHT22;10445;50.216;7.912;2022-08-03T16:38:10;31.10;1.00
20574;DHT22;10445;50.216;7.912;2022-08-03T16:41:06;31.10;1.00
20574;DHT22;10445;50.216;7.912;2022-08-03T16:43:55;31.00;1.00
20574;DHT22;10445;50.216;7.912;2022-08-03T16:46:44;30.90;1.00
20574;DHT22;10445;50.216;7.912;2022-08-03T16:49:33;30.90;1.00
20574;DHT22;10445;50.216;7.912;2022-08-03T16:52:42;30.90;1.00
20574;DHT22;10445;50.216;7.912;2022-08-03T16:55:34;31.00;1.00
20574;DHT22;10445;50.216;7.912;2022-08-03T16:58:39;31.00;1.00
20574;DHT22;10445;50.216;7.912;2022-08-03T17:01:30;31.00;1.00
20574;DHT22;10445;50.216;7.912;2022-08-03T17:04:25;31.00;1.00
20574;DHT22;10445;50.216;7.912;2022-08-03T17:07:15;30.90;1.00
20574;DHT22;10445;50.216;7.912;2022-08-03T17:10:07;30.90;1.00
20574;DHT22;10445;50.216;7.912;2022-08-03T17:12:56;30.80;1.00
20574;DHT22;10445;50.216;7.912;2022-08-03T17:15:47;30.70;1.00
20574;DHT22;10445;50.216;7.912;2022-08-03T17:18:51;30.60;1.00
20574;DHT22;10445;50.216;7.912;2022-08-03T17:21:45;30.60;1.00
20574;DHT22;10445;50.216;7.912;2022-08-03T17:24:38;30.50;1.00
20574;DHT22;10445;50.216;7.912;2022-08-03T17:27:28;30.50;1.00
20574;DHT22;10445;50.216;7.912;2022-08-03T17:30:38;30.20;1.00
20574;DHT22;10445;50.216;7.912;2022-08-03T17:33:49;30.20;1.00
20574;DHT22;10445;50.216;7.912;2022-08-03T17:36:43;30.00;1.00
20574;DHT22;10445;50.216;7.912;2022-08-03T17:39:52;29.90;1.00
20574;DHT22;10445;50.216;7.912;2022-08-03T17:42:46;29.80;1.00
20574;DHT22;10445;50.216;7.912;2022-08-03T17:45:37;29.80;1.00
20574;DHT22;10445;50.216;7.912;2022-08-03T17:48:39;29.70;1.00
20574;DHT22;10445;50.216;7.912;2022-08-03T17:51:32;29.60;1.00
20574;DHT22;10445;50.216;7.912;2022-08-03T17:54:37;29.60;1.00
20574;DHT22;10445;50.216;7.912;2022-08-03T17:57:52;29.50;1.00
20574;DHT22;10445;50.216;7.912;2022-08-03T18:00:51;29.40;1.00
20574;DHT22;10445;50.216;7.912;2022-08-03T18:04:22;29.40;1.00
20574;DHT22;10445;50.216;7.912;2022-08-03T18:07:19;29.40;1.00
20574;DHT22;10445;50.216;7.912;2022-08-03T18:10:34;29.30;1.00
20574;DHT22;10445;50.216;7.912;2022-08-03T18:13:39;29.30;1.00
20574;DHT22;10445;50.216;7.912;2022-08-03T18:16:45;29.30;1.00
20574;DHT22;10445;50.216;7.912;2022-08-03T18:19:40;29.10;1.00
20574;DHT22;10445;50.216;7.912;2022-08-03T18:22:51;29.10;1.00
20574;DHT22;10445;50.216;7.912;2022-08-03T18:25:40;29.10;1.00
20574;DHT22;10445;50.216;7.912;2022-08-03T18:28:39;29.00;1.00
20574;DHT22;10445;50.216;7.912;2022-08-03T18:31:29;28.90;1.00
20574;DHT22;10445;50.216;7.912;2022-08-03T18:34:39;28.80;1.00
20574;DHT22;10445;50.216;7.912;2022-08-03T18:37:42;28.70;1.00
20574;DHT22;10445;50.216;7.912;2022-08-03T18:40:40;28.60;1.00
20574;DHT22;10445;50.216;7.912;2022-08-03T18:43:39;28.50;1.00
20574;DHT22;10445;50.216;7.912;2022-08-03T18:46:41;28.30;1.00
20574;DHT22;10445;50.216;7.912;2022-08-03T18:49:43;28.30;1.00
20574;DHT22;10445;50.216;7.912;2022-08-03T18:52:38;28.30;1.00
20574;DHT22;10445;50.216;7.912;2022-08-03T18:55:34;28.20;1.00
20574;DHT22;10445;50.216;7.912;2022-08-03T18:58:50;28.20;1.00
20574;DHT22;10445;50.216;7.912;2022-08-03T19:01:50;28.10;1.00
20574;DHT22;10445;50.216;7.912;2022-08-03T19:04:52;28.00;1.00